»·PEaware :: N501SC KPAO-KSNS

N501SC :: KPAO-KSNS

FLIGHT INFORMATION

Flight Status: Arrived
Operator: Privately registered:
United States
More flights under this callsign
Pilot: Anonymous 17878 (17878)
Aircraft: CESSNA 172 SKYHAWK
(C172)
More flights by this aircraft type
Origin: KPAO Palo Alto Of Santa Clara Co
United States
Destination: KSNS Salinas Mun
United States
More flights between these airports :: More routes between these airports
Route: +SJC V485 ULENY SNS
File this flight plan on PilotEdge
Remarks: GPS approach requested
Altitude:
(Current/Filed)
5,000ft
Speed:
(Current/Filed)
115kts
Departed: 14-Jan-18 01:00 PM
Arrived: 14-Jan-18 02:04 PM
Distance/Time
Traveled:
53nm/1:04
Distance/Time
To Go:
Arrived

Flight Plot

Page will automatically refresh every two minutes.


Map Options




Map Legend


Flown Route
Filed Route
Departure Airport
Arrival Airport
Navaid (VOR, NDB)
Fix

Horizontal Profiles

Position Reports

Time Latitude Longitude Heading Altitude Ground
Speed
14-Jan-18 12:51 37.457248 -122.112217 236 6ft 0kts
14-Jan-18 12:52 37.457248 -122.112217 236 6ft 0kts
14-Jan-18 12:53 37.457248 -122.112217 236 6ft 0kts
14-Jan-18 12:54 37.457248 -122.112217 236 6ft 0kts
14-Jan-18 12:55 37.457248 -122.112217 236 6ft 0kts
14-Jan-18 12:56 37.457248 -122.112217 236 6ft 0kts
14-Jan-18 12:57 37.457248 -122.112217 236 6ft 0kts
14-Jan-18 12:58 37.457248 -122.112217 236 6ft 0kts
14-Jan-18 12:59 37.457248 -122.112217 236 6ft 0kts
14-Jan-18 13:00 37.457248 -122.112217 236 6ft 0kts
14-Jan-18 13:01 37.457248 -122.112217 236 6ft 0kts
14-Jan-18 13:02 37.457248 -122.112217 236 6ft 0kts
14-Jan-18 13:03 37.457248 -122.112217 236 6ft 0kts
14-Jan-18 13:04 37.457332 -122.112554 4 6ft 3kts
14-Jan-18 13:05 37.457947 -122.112202 53 6ft 7kts
14-Jan-18 13:06 37.466408 -122.118393 337 316ft 75kts
14-Jan-18 13:07 37.479687 -122.108963 74 1319ft 75kts
14-Jan-18 13:08 37.483218 -122.084487 80 2261ft 76kts
14-Jan-18 13:09 37.488316 -122.058966 71 3024ft 93kts
14-Jan-18 13:10 37.495950 -122.025116 72 3063ft 118kts
14-Jan-18 13:11 37.498525 -121.990702 139 3445ft 104kts
14-Jan-18 13:12 37.474912 -121.982032 162 4206ft 97kts
14-Jan-18 13:13 37.450191 -121.971797 165 4711ft 110kts
14-Jan-18 13:14 37.424213 -121.962238 166 4999ft 119kts
14-Jan-18 13:15 37.397262 -121.952553 167 4999ft 111kts
14-Jan-18 13:16 37.372936 -121.941392 143 5000ft 107kts
14-Jan-18 13:17 37.351517 -121.917406 140 5000ft 118kts
14-Jan-18 13:18 37.328711 -121.891364 139 5008ft 119kts
14-Jan-18 13:19 37.306168 -121.865462 139 5007ft 120kts
14-Jan-18 13:20 37.281665 -121.837365 139 5006ft 121kts
14-Jan-18 13:21 37.256775 -121.808775 138 5002ft 122kts
14-Jan-18 13:22 37.231552 -121.779858 137 4998ft 123kts
14-Jan-18 13:23 37.206343 -121.751079 134 4993ft 119kts
14-Jan-18 13:24 37.182590 -121.723819 134 4989ft 114kts
14-Jan-18 13:25 37.160568 -121.698605 135 4986ft 113kts
14-Jan-18 13:26 37.137476 -121.672287 135 4983ft 112kts
14-Jan-18 13:27 37.114486 -121.646115 135 4984ft 111kts
14-Jan-18 13:28 37.091587 -121.619982 135 4987ft 112kts
14-Jan-18 13:29 37.068481 -121.593653 135 4990ft 112kts
14-Jan-18 13:30 37.037092 -121.589844 178 4991ft 117kts
14-Jan-18 13:31 37.004488 -121.591044 178 4991ft 117kts
14-Jan-18 13:32 36.971995 -121.592220 178 4991ft 117kts
14-Jan-18 13:33 36.940867 -121.587095 147 5077ft 110kts
14-Jan-18 13:34 36.916243 -121.568562 145 5567ft 100kts
14-Jan-18 13:35 36.892401 -121.550242 146 5928ft 108kts
14-Jan-18 13:36 36.867233 -121.531073 146 5930ft 108kts
14-Jan-18 13:37 36.841535 -121.511391 145 5932ft 108kts
14-Jan-18 13:38 36.818090 -121.493441 145 5935ft 109kts
14-Jan-18 13:39 36.791466 -121.473035 149 5938ft 116kts
14-Jan-18 13:40 36.764472 -121.452397 145 5934ft 114kts
14-Jan-18 13:41 36.737154 -121.431521 145 5928ft 116kts
14-Jan-18 13:42 36.709753 -121.410597 145 5923ft 115kts
14-Jan-18 13:43 36.682577 -121.389847 146 5918ft 114kts
14-Jan-18 13:44 36.655633 -121.369335 146 5916ft 113kts
14-Jan-18 13:45 36.628799 -121.348903 146 5915ft 113kts
14-Jan-18 13:46 36.601880 -121.328399 147 5916ft 113kts
14-Jan-18 13:47 36.574929 -121.307935 146 5901ft 113kts
14-Jan-18 13:48 36.548338 -121.287739 146 5899ft 111kts
14-Jan-18 13:49 36.522054 -121.267760 147 5896ft 111kts
14-Jan-18 13:50 36.495718 -121.247804 148 5893ft 110kts
14-Jan-18 13:51 36.469631 -121.228048 148 5891ft 109kts
14-Jan-18 13:52 36.442681 -121.222233 223 5896ft 119kts
14-Jan-18 13:53 36.424409 -121.255600 231 5902ft 113kts
14-Jan-18 13:54 36.407683 -121.288964 231 5894ft 112kts
14-Jan-18 13:55 36.391021 -121.321602 232 5887ft 112kts
14-Jan-18 13:56 36.374676 -121.354617 232 5899ft 112kts
14-Jan-18 13:57 36.382696 -121.387296 328 5671ft 126kts
14-Jan-18 13:58 36.411375 -121.409851 329 5120ft 114kts
14-Jan-18 13:59 36.437041 -121.429681 331 5061ft 95kts
14-Jan-18 14:00 36.458665 -121.447724 325 4952ft 94kts
14-Jan-18 14:01 36.480305 -121.465101 330 4550ft 91kts
14-Jan-18 14:02 36.502791 -121.483339 331 3950ft 98kts
14-Jan-18 14:03 36.525622 -121.501486 329 3343ft 96kts
14-Jan-18 14:04 36.546767 -121.517453 332 2830ft 96kts
14-Jan-18 14:05 36.568567 -121.535760 336 2350ft 93kts
14-Jan-18 14:06 36.592476 -121.546255 351 1856ft 91kts
14-Jan-18 14:07 36.611506 -121.568592 318 1348ft 95kts
14-Jan-18 14:08 36.634567 -121.583407 335 680ft 94kts
14-Jan-18 14:09 36.654535 -121.599021 335 177ft 72kts
14-Jan-18 14:10 36.662802 -121.605997 269 88ft 21kts
14-Jan-18 14:11 36.663926 -121.607906 329 88ft 24kts
14-Jan-18 14:12 36.665327 -121.610616 306 88ft 28kts
14-Jan-18 14:13 36.665672 -121.611520 233 88ft 0kts

Navigation Log

Ident Type
Flight plan parsing failed, navigation log unavailable